createdAt,value
2023-04-09T00:01:09.953Z,101781.19
2023-04-09T00:03:37.379Z,101777.59
2023-04-09T00:06:05.956Z,101776.72
2023-04-09T00:08:32.828Z,101757.06
2023-04-09T00:10:59.862Z,101779.13
2023-04-09T00:13:38.569Z,101773.69
2023-04-09T00:16:06.889Z,101779.13
2023-04-09T00:18:33.490Z,101751.09
2023-04-09T00:21:00.065Z,101765.59
2023-04-09T00:23:27.986Z,101775.09
2023-04-09T00:25:54.646Z,101767.22
2023-04-09T00:28:21.221Z,101757.06
2023-04-09T00:30:47.884Z,101752.78
2023-04-09T00:33:15.582Z,101765.22
2023-04-09T00:35:42.159Z,101766.06
2023-04-09T00:38:08.787Z,101769.31
2023-04-09T00:40:36.847Z,101764.84
2023-04-09T00:43:03.544Z,101768.25
2023-04-09T00:45:30.229Z,101745.97
2023-04-09T00:47:57.041Z,101732.63
2023-04-09T00:50:23.709Z,101746.44
2023-04-09T00:52:50.414Z,101762.53
2023-04-09T00:55:18.172Z,101759.00
2023-04-09T00:57:46.219Z,101724.25
2023-04-09T01:00:14.090Z,101756.91
2023-04-09T01:02:41.215Z,101771.09
2023-04-09T01:05:08.817Z,101758.81
2023-04-09T01:07:47.735Z,101767.47
2023-04-09T01:10:20.011Z,101747.03
2023-04-09T01:13:01.152Z,101732.38
2023-04-09T01:15:31.180Z,101740.66
2023-04-09T01:18:05.193Z,101760.44
2023-04-09T01:20:38.215Z,101763.38
2023-04-09T01:23:20.088Z,101759.84
2023-04-09T01:26:03.474Z,101758.28
2023-04-09T01:28:45.008Z,101759.13
2023-04-09T01:31:14.145Z,101755.03
2023-04-09T01:33:42.064Z,101766.44
2023-04-09T01:36:09.534Z,101757.75
2023-04-09T01:38:38.988Z,101752.59
2023-04-09T01:41:07.677Z,101748.41
2023-04-09T01:43:34.842Z,101745.13
2023-04-09T01:46:04.000Z,101765.53
2023-04-09T01:48:32.634Z,101760.53
2023-04-09T01:50:59.352Z,101755.50
2023-04-09T01:53:25.909Z,101753.00
2023-04-09T01:55:52.459Z,101754.94
2023-04-09T01:58:19.060Z,101757.88
2023-04-09T02:00:48.588Z,101755.31
2023-04-09T02:03:21.575Z,101727.63
2023-04-09T02:05:55.638Z,101755.13
2023-04-09T02:08:24.648Z,101745.00
2023-04-09T02:10:56.333Z,101735.91
2023-04-09T02:13:24.378Z,101699.63
2023-04-09T02:15:51.699Z,101752.75
2023-04-09T02:18:24.152Z,101744.50
2023-04-09T02:20:52.127Z,101749.19
2023-04-09T02:23:18.697Z,101745.09
2023-04-09T02:25:45.738Z,101748.81
2023-04-09T02:28:12.326Z,101755.28
2023-04-09T02:30:38.960Z,101749.31
2023-04-09T02:33:05.649Z,101746.06
2023-04-09T02:35:33.734Z,101725.28
2023-04-09T02:38:00.728Z,101739.63
2023-04-09T02:40:27.686Z,101744.56
2023-04-09T02:42:54.466Z,101749.00
2023-04-09T02:45:21.210Z,101733.16
2023-04-09T02:47:47.779Z,101750.34
2023-04-09T02:50:14.719Z,101743.94
2023-04-09T02:52:48.831Z,101742.41
2023-04-09T02:55:15.604Z,101732.91
2023-04-09T02:57:42.158Z,101737.28
2023-04-09T03:00:10.151Z,101745.41
2023-04-09T03:02:37.023Z,101743.91
2023-04-09T03:05:04.970Z,101743.31
2023-04-09T03:07:31.523Z,101745.41
2023-04-09T03:09:59.893Z,101742.78
2023-04-09T03:12:26.982Z,101741.94
2023-04-09T03:14:53.975Z,101734.34
2023-04-09T03:17:20.515Z,101733.66
2023-04-09T03:19:47.312Z,101736.97
2023-04-09T03:22:15.633Z,101715.69
2023-04-09T03:24:42.775Z,101734.28
2023-04-09T03:27:10.915Z,101732.66
2023-04-09T03:29:38.220Z,101723.25
2023-04-09T03:32:05.995Z,101725.06
2023-04-09T03:34:32.714Z,101716.72
2023-04-09T03:36:59.411Z,101710.50
2023-04-09T03:39:29.887Z,101691.00
2023-04-09T03:41:56.854Z,101725.06
2023-04-09T03:44:25.086Z,101724.09
2023-04-09T03:47:07.496Z,101710.25
2023-04-09T03:49:35.843Z,101715.34
2023-04-09T03:52:11.640Z,101714.44
2023-04-09T03:54:42.072Z,101706.13
2023-04-09T03:57:13.241Z,101724.97
2023-04-09T03:59:43.844Z,101727.38
2023-04-09T04:02:11.838Z,101721.22
2023-04-09T04:04:43.729Z,101724.63
2023-04-09T04:07:11.181Z,101724.53
2023-04-09T04:09:45.034Z,101714.25
2023-04-09T04:12:15.481Z,101727.16
2023-04-09T04:15:16.099Z,101728.00
2023-04-09T04:17:50.730Z,101721.09
2023-04-09T04:20:25.755Z,101731.63
2023-04-09T04:22:58.857Z,101725.41
2023-04-09T04:25:27.163Z,101698.25
2023-04-09T04:27:55.130Z,101727.38
2023-04-09T04:30:27.471Z,101722.03
2023-04-09T04:33:04.504Z,101693.22
2023-04-09T04:35:39.009Z,101721.28
2023-04-09T04:38:08.892Z,101714.63
2023-04-09T04:40:37.861Z,101715.56
2023-04-09T04:43:05.524Z,101715.47
2023-04-09T04:45:33.467Z,101718.22
2023-04-09T04:48:05.601Z,101721.81
2023-04-09T04:50:32.223Z,101725.44
2023-04-09T04:53:06.135Z,101725.53
2023-04-09T04:55:40.675Z,101728.31
2023-04-09T04:58:10.638Z,101713.91
2023-04-09T05:00:52.452Z,101733.91
2023-04-09T05:03:19.330Z,101730.59
2023-04-09T05:06:06.195Z,101702.69
2023-04-09T05:08:40.455Z,101733.94
2023-04-09T05:11:11.473Z,101729.97
2023-04-09T05:13:38.640Z,101735.22
2023-04-09T05:16:15.985Z,101741.41
2023-04-09T05:18:43.616Z,101746.50
2023-04-09T05:21:11.165Z,101739.53
2023-04-09T05:23:39.128Z,101739.56
2023-04-09T05:26:05.743Z,101747.41
2023-04-09T05:28:46.169Z,101750.69
2023-04-09T05:31:18.300Z,101740.28
2023-04-09T05:33:55.192Z,101711.09
2023-04-09T05:36:31.316Z,101744.03
2023-04-09T05:38:58.530Z,101748.94
2023-04-09T05:41:25.399Z,101746.94
2023-04-09T05:44:11.044Z,101744.22
2023-04-09T05:46:40.392Z,101745.88
2023-04-09T05:49:08.070Z,101745.81
2023-04-09T05:51:38.669Z,101740.44
2023-04-09T05:54:06.214Z,101746.03
2023-04-09T05:56:36.506Z,101748.47
2023-04-09T05:59:04.870Z,101752.66
2023-04-09T06:01:31.524Z,101744.47
2023-04-09T06:03:59.750Z,101751.13
2023-04-09T06:06:29.777Z,101682.94
2023-04-09T06:08:56.367Z,101748.72
2023-04-09T06:11:22.924Z,101745.94
2023-04-09T06:13:49.822Z,101703.84
2023-04-09T06:16:16.495Z,101745.72
2023-04-09T06:18:43.131Z,101745.22
2023-04-09T06:21:11.042Z,101748.41
2023-04-09T06:23:37.568Z,101729.94
2023-04-09T06:26:04.133Z,101735.50
2023-04-09T06:28:31.142Z,101743.53
2023-04-09T06:30:58.036Z,101737.88
2023-04-09T06:33:24.951Z,101736.41
2023-04-09T06:35:51.567Z,101740.22
2023-04-09T06:38:19.507Z,101741.47
2023-04-09T06:40:46.213Z,101741.88
2023-04-09T06:43:12.828Z,101736.06
2023-04-09T06:45:50.178Z,101720.28
2023-04-09T06:48:16.906Z,101743.22
2023-04-09T06:50:44.053Z,101741.84
2023-04-09T06:53:10.741Z,101736.94
2023-04-09T06:55:38.707Z,101731.81
2023-04-09T06:58:05.436Z,101736.16
2023-04-09T07:00:32.082Z,101731.06
2023-04-09T07:02:59.037Z,101733.94
2023-04-09T07:05:25.811Z,101735.16
2023-04-09T07:07:52.542Z,101741.25
2023-04-09T07:10:19.097Z,101745.81
2023-04-09T07:12:47.109Z,101742.41
2023-04-09T07:15:13.636Z,101742.78
2023-04-09T07:17:41.248Z,101741.84
2023-04-09T07:20:08.484Z,101740.19
2023-04-09T07:22:35.742Z,101736.47
2023-04-09T07:25:02.298Z,101743.44
2023-04-09T07:27:29.182Z,101748.81
2023-04-09T07:29:57.933Z,101741.78
2023-04-09T07:32:25.188Z,101763.19
2023-04-09T07:34:52.422Z,101757.28
2023-04-09T07:37:19.281Z,101752.84
2023-04-09T07:39:45.989Z,101758.50
2023-04-09T07:42:12.948Z,101757.81
2023-04-09T07:44:39.840Z,101742.94
2023-04-09T07:47:08.291Z,101758.03
2023-04-09T07:49:35.864Z,101758.38
2023-04-09T07:52:02.587Z,101750.63
2023-04-09T07:54:29.133Z,101751.72
2023-04-09T07:56:55.685Z,101733.56
2023-04-09T07:59:22.253Z,101753.16
2023-04-09T08:01:49.073Z,101751.19
2023-04-09T08:04:17.395Z,101752.66
2023-04-09T08:06:44.033Z,101745.06
2023-04-09T08:09:10.563Z,101753.56
2023-04-09T08:11:37.153Z,101749.03
2023-04-09T08:14:03.771Z,101750.41
2023-04-09T08:16:30.539Z,101753.91
2023-04-09T08:18:57.311Z,101736.97
2023-04-09T08:21:25.296Z,101730.22
2023-04-09T08:23:51.916Z,101748.16
2023-04-09T08:26:18.733Z,101749.00
2023-04-09T08:28:45.232Z,101745.16
2023-04-09T08:31:11.839Z,101755.72
2023-04-09T08:33:38.350Z,101746.38
2023-04-09T08:36:08.459Z,101739.50
2023-04-09T08:38:36.342Z,101750.91
2023-04-09T08:41:02.956Z,101752.03
2023-04-09T08:43:52.625Z,101748.25
2023-04-09T08:46:19.009Z,101747.59
2023-04-09T08:48:46.656Z,101748.19
2023-04-09T08:51:13.985Z,101720.50
2023-04-09T08:53:44.400Z,101750.75
2023-04-09T08:56:10.997Z,101741.97
2023-04-09T08:58:37.513Z,101744.06
2023-04-09T09:01:04.185Z,101747.16
2023-04-09T09:03:30.912Z,101741.19
2023-04-09T09:05:57.562Z,101744.47
2023-04-09T09:08:26.064Z,101744.50
2023-04-09T09:10:54.016Z,101751.59
2023-04-09T09:13:23.310Z,101745.25
2023-04-09T09:15:50.538Z,101750.41
2023-04-09T09:18:17.665Z,101736.19
2023-04-09T09:20:44.287Z,101732.84
2023-04-09T09:23:10.896Z,101724.75
2023-04-09T09:25:41.606Z,101738.72
2023-04-09T09:28:11.694Z,101717.63
2023-04-09T09:30:39.338Z,101728.94
2023-04-09T09:33:07.692Z,101728.78
2023-04-09T09:35:48.129Z,101730.13
2023-04-09T09:38:14.974Z,101733.63
2023-04-09T09:40:41.909Z,101726.63
2023-04-09T09:43:10.251Z,101720.91
2023-04-09T09:45:37.066Z,101722.59
2023-04-09T09:48:05.052Z,101724.75
2023-04-09T09:50:34.330Z,101721.34
2023-04-09T09:53:03.521Z,101722.00
2023-04-09T09:55:31.618Z,101688.84
2023-04-09T09:58:01.551Z,101712.88
2023-04-09T10:00:32.343Z,101710.13
2023-04-09T10:03:12.249Z,101716.28
2023-04-09T10:05:41.282Z,101710.41
2023-04-09T10:08:08.109Z,101700.03
2023-04-09T10:10:36.044Z,101704.94
2023-04-09T10:13:05.273Z,101695.16
2023-04-09T10:15:33.667Z,101700.31
2023-04-09T10:18:00.256Z,101708.59
2023-04-09T10:20:32.533Z,101697.06
2023-04-09T10:23:05.920Z,101672.09
2023-04-09T10:25:32.637Z,101688.47
2023-04-09T10:28:00.354Z,101689.44
2023-04-09T10:30:35.979Z,101686.69
2023-04-09T10:33:10.427Z,101689.16
2023-04-09T10:35:37.149Z,101692.47
2023-04-09T10:38:03.824Z,101697.94
2023-04-09T10:40:30.452Z,101693.44
2023-04-09T10:42:59.499Z,101691.31
2023-04-09T10:45:40.925Z,101689.09
2023-04-09T10:48:12.005Z,101684.72
2023-04-09T10:50:39.490Z,101672.53
2023-04-09T10:53:06.010Z,101677.00
2023-04-09T10:55:38.004Z,101682.56
2023-04-09T10:58:05.497Z,101680.34
2023-04-09T11:00:36.598Z,101684.03
2023-04-09T11:03:19.959Z,101671.75
2023-04-09T11:05:48.560Z,101665.88
2023-04-09T11:08:16.250Z,101675.53
2023-04-09T11:10:44.510Z,101679.34
2023-04-09T11:13:11.999Z,101675.81
2023-04-09T11:15:39.077Z,101681.00
2023-04-09T11:18:06.389Z,101672.47
2023-04-09T11:20:34.626Z,101681.25
2023-04-09T11:23:01.618Z,101682.50
2023-04-09T11:25:30.731Z,101663.84
2023-04-09T11:27:57.879Z,101668.72
2023-04-09T11:30:24.623Z,101661.19
2023-04-09T11:32:51.382Z,101677.28
2023-04-09T11:35:21.053Z,101664.13
2023-04-09T11:37:49.930Z,101656.03
2023-04-09T11:40:17.488Z,101653.00
2023-04-09T11:42:44.324Z,101648.22
2023-04-09T11:45:12.171Z,101640.66
2023-04-09T11:47:40.449Z,101657.59
2023-04-09T11:50:08.946Z,101659.16
2023-04-09T11:52:36.108Z,101651.59
2023-04-09T11:55:05.197Z,101652.88
2023-04-09T11:57:40.047Z,101653.84
2023-04-09T12:00:09.548Z,101656.97
2023-04-09T12:02:38.642Z,101642.69
2023-04-09T12:05:06.259Z,101631.47
2023-04-09T12:07:33.373Z,101625.81
2023-04-09T12:10:05.575Z,101651.88
2023-04-09T12:12:39.881Z,101638.19
2023-04-09T12:15:11.063Z,101648.00
2023-04-09T12:17:37.757Z,101646.88
2023-04-09T12:20:05.244Z,101645.78
2023-04-09T12:22:31.870Z,101635.69
2023-04-09T12:24:58.426Z,101641.84
2023-04-09T12:27:26.482Z,101640.28
2023-04-09T12:29:53.014Z,101637.06
2023-04-09T12:32:19.986Z,101640.00
2023-04-09T12:34:46.613Z,101632.56
2023-04-09T12:37:13.419Z,101633.94
2023-04-09T12:39:39.948Z,101631.56
2023-04-09T12:42:06.560Z,101637.06
2023-04-09T12:44:34.478Z,101619.13
2023-04-09T12:47:01.251Z,101623.06
2023-04-09T12:49:27.781Z,101632.72
2023-04-09T12:51:54.377Z,101627.97
2023-04-09T12:54:21.180Z,101632.31
2023-04-09T12:56:47.764Z,101631.34
2023-04-09T12:59:14.280Z,101628.13
2023-04-09T13:01:43.590Z,101627.81
2023-04-09T13:04:10.309Z,101624.44
2023-04-09T13:06:36.953Z,101632.75
2023-04-09T13:09:03.614Z,101641.97
2023-04-09T13:11:30.240Z,101635.94
2023-04-09T13:13:56.735Z,101635.78
2023-04-09T13:16:23.377Z,101633.81
2023-04-09T13:18:51.457Z,101628.09
2023-04-09T13:21:18.220Z,101618.72
2023-04-09T13:23:44.815Z,101624.47
2023-04-09T13:26:11.374Z,101615.34
2023-04-09T13:28:37.864Z,101610.44
2023-04-09T13:31:05.811Z,101619.00
2023-04-09T13:33:32.353Z,101613.66
2023-04-09T13:36:00.235Z,101609.47
2023-04-09T13:38:26.785Z,101605.66
2023-04-09T13:40:53.432Z,101604.28
2023-04-09T13:43:20.016Z,101605.97
2023-04-09T13:45:46.612Z,101607.22
2023-04-09T13:48:15.159Z,101605.69
2023-04-09T13:50:42.084Z,101602.59
2023-04-09T13:53:09.961Z,101595.19
2023-04-09T13:55:36.582Z,101602.06
2023-04-09T13:58:03.086Z,101600.66
2023-04-09T14:00:30.873Z,101577.22
2023-04-09T14:02:57.633Z,101589.53
2023-04-09T14:05:24.297Z,101577.09
2023-04-09T14:07:50.833Z,101590.50
2023-04-09T14:10:18.814Z,101590.44
2023-04-09T14:12:45.600Z,101591.13
2023-04-09T14:15:12.193Z,101563.97
2023-04-09T14:17:39.772Z,101595.06
2023-04-09T14:20:07.493Z,101589.63
2023-04-09T14:22:33.981Z,101585.31
2023-04-09T14:25:00.791Z,101579.53
2023-04-09T14:27:28.675Z,101576.38
2023-04-09T14:29:55.379Z,101580.81
2023-04-09T14:32:21.946Z,101580.19
2023-04-09T14:34:48.585Z,101573.97
2023-04-09T14:37:15.068Z,101558.56
2023-04-09T14:39:41.682Z,101569.47
2023-04-09T14:42:08.210Z,101562.66
2023-04-09T14:44:36.162Z,101572.63
2023-04-09T14:47:02.812Z,101573.97
2023-04-09T14:49:29.482Z,101565.28
2023-04-09T14:51:55.993Z,101540.84
2023-04-09T14:54:22.601Z,101556.34
2023-04-09T14:56:49.114Z,101536.25
2023-04-09T14:59:15.689Z,101558.66
2023-04-09T15:01:43.620Z,101540.25
2023-04-09T15:04:10.378Z,101558.56
2023-04-09T15:06:36.947Z,101560.50
2023-04-09T15:09:03.559Z,101555.44
2023-04-09T15:11:30.048Z,101549.03
2023-04-09T15:13:56.616Z,101547.31
2023-04-09T15:16:24.330Z,101520.19
2023-04-09T15:18:53.069Z,101545.16
2023-04-09T15:21:19.757Z,101555.22
2023-04-09T15:23:46.313Z,101556.19
2023-04-09T15:26:13.086Z,101548.16
2023-04-09T15:28:39.714Z,101554.00
2023-04-09T15:31:06.407Z,101536.72
2023-04-09T15:33:33.020Z,101548.63
2023-04-09T15:36:00.879Z,101525.28
2023-04-09T15:38:27.474Z,101546.56
2023-04-09T15:40:56.010Z,101548.72
2023-04-09T15:43:22.919Z,101535.53
2023-04-09T15:45:49.726Z,101540.88
2023-04-09T15:48:16.578Z,101525.84
2023-04-09T15:50:43.166Z,101542.41
2023-04-09T15:53:11.141Z,101532.72
2023-04-09T15:55:37.700Z,101542.69
2023-04-09T15:58:04.244Z,101545.47
2023-04-09T16:00:30.822Z,101552.94
2023-04-09T16:02:57.456Z,101522.84
2023-04-09T16:05:24.227Z,101543.78
2023-04-09T16:07:50.988Z,101546.22
2023-04-09T16:10:18.996Z,101544.25
2023-04-09T16:12:45.540Z,101540.03
2023-04-09T16:15:12.084Z,101535.44
2023-04-09T16:17:40.942Z,101531.75
2023-04-09T16:20:08.612Z,101521.09
2023-04-09T16:22:35.464Z,101530.13
2023-04-09T16:25:02.258Z,101535.72
2023-04-09T16:27:30.577Z,101537.41
2023-04-09T16:29:57.182Z,101539.19
2023-04-09T16:32:23.775Z,101550.56
2023-04-09T16:34:50.303Z,101552.75
2023-04-09T16:37:17.047Z,101548.03
2023-04-09T16:39:43.633Z,101520.78
2023-04-09T16:42:10.196Z,101541.56
2023-04-09T16:44:38.327Z,101544.72
2023-04-09T16:47:05.289Z,101527.84
2023-04-09T16:49:31.794Z,101537.69
2023-04-09T16:51:58.399Z,101526.66
2023-04-09T16:54:25.002Z,101535.22
2023-04-09T16:56:51.586Z,101538.91
2023-04-09T16:59:18.119Z,101538.63
2023-04-09T17:01:46.435Z,101546.16
2023-04-09T17:04:13.180Z,101545.31
2023-04-09T17:06:39.851Z,101537.41
2023-04-09T17:09:06.360Z,101533.56
2023-04-09T17:11:33.061Z,101533.94
2023-04-09T17:13:59.726Z,101524.47
2023-04-09T17:16:26.633Z,101519.03
2023-04-09T17:18:54.837Z,101517.41
2023-04-09T17:21:21.728Z,101505.97
2023-04-09T17:23:48.238Z,101504.06
2023-04-09T17:26:15.242Z,101505.97
2023-04-09T17:28:41.865Z,101505.47
2023-04-09T17:31:12.563Z,101506.66
2023-04-09T17:33:39.239Z,101505.22
2023-04-09T17:36:07.756Z,101501.66
2023-04-09T17:38:34.330Z,101502.84
2023-04-09T17:41:01.178Z,101508.53
2023-04-09T17:43:27.879Z,101497.22
2023-04-09T17:45:54.444Z,101523.91
2023-04-09T17:48:21.085Z,101524.59
2023-04-09T17:50:47.876Z,101516.00
2023-04-09T17:53:15.927Z,101534.00
2023-04-09T17:55:46.642Z,101519.13
2023-04-09T17:58:13.246Z,101536.13
2023-04-09T18:00:39.754Z,101535.88
2023-04-09T18:03:06.575Z,101531.88
2023-04-09T18:05:34.131Z,101521.28
2023-04-09T18:08:00.917Z,101536.28
2023-04-09T18:10:28.788Z,101540.06
2023-04-09T18:12:55.417Z,101520.56
2023-04-09T18:15:22.016Z,101540.72
2023-04-09T18:17:48.697Z,101535.81
2023-04-09T18:20:15.705Z,101516.72
2023-04-09T18:22:42.572Z,101533.81
2023-04-09T18:25:09.684Z,101534.56
2023-04-09T18:27:37.722Z,101544.06
2023-04-09T18:30:05.249Z,101533.66
2023-04-09T18:32:31.855Z,101552.63
2023-04-09T18:34:58.493Z,101524.22
2023-04-09T18:37:25.105Z,101545.47
2023-04-09T18:39:51.602Z,101546.88
2023-04-09T18:42:18.247Z,101554.22
2023-04-09T18:44:46.104Z,101543.94
2023-04-09T18:47:12.747Z,101547.59
2023-04-09T18:49:39.285Z,101555.03
2023-04-09T18:52:05.862Z,101555.06
2023-04-09T18:54:32.362Z,101546.22
2023-04-09T18:56:58.945Z,101556.47
2023-04-09T18:59:25.458Z,101552.19
2023-04-09T19:01:53.491Z,101551.19
2023-04-09T19:04:20.080Z,101560.50
2023-04-09T19:06:46.736Z,101561.59
2023-04-09T19:09:13.209Z,101560.63
2023-04-09T19:11:39.881Z,101559.34
2023-04-09T19:14:06.354Z,101563.38
2023-04-09T19:16:33.028Z,101555.91
2023-04-09T19:19:00.907Z,101567.03
2023-04-09T19:21:27.487Z,101569.75
2023-04-09T19:23:53.955Z,101570.41
2023-04-09T19:26:20.510Z,101573.16
2023-04-09T19:28:47.003Z,101581.06
2023-04-09T19:31:13.626Z,101577.56
2023-04-09T19:33:40.221Z,101580.03
2023-04-09T19:36:08.198Z,101568.09
2023-04-09T19:38:34.990Z,101550.34
2023-04-09T19:41:01.626Z,101559.91
2023-04-09T19:43:28.131Z,101554.84
2023-04-09T19:45:54.724Z,101561.16
2023-04-09T19:48:21.249Z,101559.91
2023-04-09T19:50:47.821Z,101567.03
2023-04-09T19:53:15.679Z,101577.25
2023-04-09T19:55:42.267Z,101575.28
2023-04-09T19:58:08.763Z,101573.09
2023-04-09T20:00:35.426Z,101564.06
2023-04-09T20:03:02.129Z,101562.06
2023-04-09T20:05:29.089Z,101562.41
2023-04-09T20:07:55.561Z,101556.84
2023-04-09T20:10:23.510Z,101568.66
2023-04-09T20:12:51.440Z,101563.81
2023-04-09T20:15:18.797Z,101572.97
2023-04-09T20:17:46.426Z,101573.44
2023-04-09T20:20:13.069Z,101578.06
2023-04-09T20:22:39.586Z,101572.16
2023-04-09T20:25:06.691Z,101564.63
2023-04-09T20:27:34.548Z,101566.47
2023-04-09T20:30:01.124Z,101563.34
2023-04-09T20:32:27.632Z,101569.78
2023-04-09T20:34:54.181Z,101568.34
2023-04-09T20:37:20.744Z,101563.94
2023-04-09T20:39:47.368Z,101578.25
2023-04-09T20:42:14.119Z,101575.69
2023-04-09T20:44:42.026Z,101563.63
2023-04-09T20:47:08.600Z,101573.47
2023-04-09T20:49:35.186Z,101572.22
2023-04-09T20:52:01.689Z,101567.22
2023-04-09T20:54:28.322Z,101559.50
2023-04-09T20:56:54.893Z,101537.88
2023-04-09T20:59:21.472Z,101557.72
2023-04-09T21:01:49.406Z,101558.03
2023-04-09T21:04:16.316Z,101560.78
2023-04-09T21:06:42.937Z,101552.47
2023-04-09T21:09:09.490Z,101545.09
2023-04-09T21:11:36.241Z,101554.50
2023-04-09T21:14:02.825Z,101546.28
2023-04-09T21:16:29.326Z,101548.97
2023-04-09T21:18:57.273Z,101550.81
2023-04-09T21:21:24.191Z,101540.22
2023-04-09T21:23:50.787Z,101544.75
2023-04-09T21:26:17.290Z,101557.78
2023-04-09T21:28:44.187Z,101550.91
2023-04-09T21:31:11.228Z,101548.59
2023-04-09T21:33:38.041Z,101545.38
2023-04-09T21:36:06.806Z,101545.53
2023-04-09T21:38:33.497Z,101544.91
2023-04-09T21:41:00.016Z,101542.53
2023-04-09T21:43:26.562Z,101553.16
2023-04-09T21:45:53.146Z,101543.00
2023-04-09T21:48:19.798Z,101546.66
2023-04-09T21:50:46.319Z,101534.91
2023-04-09T21:53:14.968Z,101525.91
2023-04-09T21:55:41.504Z,101545.44
2023-04-09T21:58:08.093Z,101550.97
2023-04-09T22:00:34.702Z,101549.44
2023-04-09T22:03:01.426Z,101543.56
2023-04-09T22:05:28.266Z,101549.00
2023-04-09T22:07:55.018Z,101513.59
2023-04-09T22:10:23.202Z,101528.34
2023-04-09T22:12:50.243Z,101546.16
2023-04-09T22:15:17.140Z,101551.53
2023-04-09T22:17:43.789Z,101547.44
2023-04-09T22:20:10.595Z,101551.16
2023-04-09T22:22:37.773Z,101535.44
2023-04-09T22:25:05.015Z,101549.91
2023-04-09T22:27:33.080Z,101542.13
2023-04-09T22:29:59.747Z,101533.03
2023-04-09T22:32:26.378Z,101541.38
2023-04-09T22:34:52.909Z,101540.94
2023-04-09T22:37:19.526Z,101518.34
2023-04-09T22:39:46.035Z,101535.66
2023-04-09T22:42:12.598Z,101536.84
2023-04-09T22:44:40.462Z,101535.34
2023-04-09T22:47:07.045Z,101524.50
2023-04-09T22:49:33.579Z,101539.16
2023-04-09T22:52:00.205Z,101543.75
2023-04-09T22:54:26.778Z,101527.78
2023-04-09T22:56:53.429Z,101532.19
2023-04-09T22:59:22.977Z,101552.75
2023-04-09T23:01:51.316Z,101546.06
2023-04-09T23:04:17.959Z,101558.78
2023-04-09T23:06:44.661Z,101564.28
2023-04-09T23:09:11.212Z,101571.47
2023-04-09T23:11:37.793Z,101573.44
2023-04-09T23:14:04.348Z,101581.44
2023-04-09T23:16:31.076Z,101584.94
2023-04-09T23:18:58.992Z,101557.03
2023-04-09T23:21:25.639Z,101586.84
2023-04-09T23:23:52.377Z,101565.66
2023-04-09T23:26:19.208Z,101574.34
2023-04-09T23:28:45.761Z,101571.94
2023-04-09T23:31:12.399Z,101573.88
2023-04-09T23:33:38.947Z,101568.88
2023-04-09T23:36:07.813Z,101577.66
2023-04-09T23:38:34.428Z,101575.34
2023-04-09T23:41:01.038Z,101584.88
2023-04-09T23:43:27.662Z,101562.03
2023-04-09T23:45:54.257Z,101575.66
2023-04-09T23:48:20.898Z,101566.97
2023-04-09T23:50:47.498Z,101564.44
2023-04-09T23:53:15.430Z,101563.41
2023-04-09T23:55:42.053Z,101565.28
2023-04-09T23:58:09.044Z,101556.81
